Time;durP1;ratioP1;P1;durP2;ratioP2;P2;SDS_P1;SDS_P2;PMS_P1;PMS_P2;Temp;Humidity;BMP_temperature;BMP_pressure;BME280_temperature;BME280_humidity;BME280_pressure;Samples;Min_cycle;Max_cycle;Signal;HPM_P1;HPM_P2
2023/11/14 00:01:56;;;;;;;4.07;1.67;;;;;;;;;;5887539;28;20041;-73
2023/11/14 00:04:46;;;;;;;1.30;1.20;;;;;;;;;;5886789;28;20045;-73
2023/11/14 00:07:37;;;;;;;1.40;1.25;;;;;;;;;;5887040;28;20392;-73
2023/11/14 00:10:29;;;;;;;2.13;1.50;;;;;;;;;;5886538;28;20049;-71
2023/11/14 00:13:20;;;;;;;2.17;1.98;;;;;;;;;;5886810;28;20052;-70
2023/11/14 00:16:11;;;;;;;4.85;1.25;;;;;;;;;;5886580;28;20056;-70
2023/11/14 00:19:02;;;;;;;2.28;1.63;;;;;;;;;;5885077;28;20045;-71
2023/11/14 00:21:53;;;;;;;4.43;2.35;;;;;;;;;;5886921;28;20102;-71
2023/11/14 00:24:43;;;;;;;1.85;1.75;;;;;;;;;;5886392;28;20481;-71
2023/11/14 00:27:34;;;;;;;2.60;2.15;;;;;;;;;;5886153;28;20072;-70
2023/11/14 00:30:25;;;;;;;3.22;1.48;;;;;;;;;;5886372;28;20049;-70
2023/11/14 00:33:16;;;;;;;1.48;1.38;;;;;;;;;;5886387;28;20055;-71
2023/11/14 00:36:07;;;;;;;1.92;1.45;;;;;;;;;;5884757;28;20080;-71
2023/11/14 00:39:00;;;;;;;3.55;1.80;;;;;;;;;;5886735;28;20136;-70
2023/11/14 00:41:54;;;;;;;2.97;2.47;;;;;;;;;;5886707;28;20395;-71
2023/11/14 00:44:45;;;;;;;2.65;2.42;;;;;;;;;;5886146;28;20036;-71
2023/11/14 00:47:36;;;;;;;5.57;2.78;;;;;;;;;;5886269;28;20056;-71
2023/11/14 00:50:27;;;;;;;5.03;2.10;;;;;;;;;;5884880;28;20056;-71
2023/11/14 00:53:18;;;;;;;3.17;1.55;;;;;;;;;;5886206;28;20423;-71
2023/11/14 00:56:11;;;;;;;2.30;1.95;;;;;;;;;;5885873;28;20056;-71
2023/11/14 00:59:04;;;;;;;3.03;1.92;;;;;;;;;;5885640;28;20083;-71
2023/11/14 01:01:58;;;;;;;1.13;1.00;;;;;;;;;;5881102;28;20112;-71
2023/11/14 01:04:49;;;;;;;2.17;1.63;;;;;;;;;;5869802;28;20041;-71
2023/11/14 01:07:40;;;;;;;1.25;1.15;;;;;;;;;;5861512;28;20511;-69
2023/11/14 01:10:31;;;;;;;1.52;1.42;;;;;;;;;;5844779;28;20049;-70
2023/11/14 01:13:22;;;;;;;1.85;1.50;;;;;;;;;;5862612;28;20103;-70
2023/11/14 01:16:15;;;;;;;3.72;1.45;;;;;;;;;;5861300;28;20052;-70
2023/11/14 01:19:06;;;;;;;1.40;1.30;;;;;;;;;;5862447;28;20054;-71
2023/11/14 01:21:56;;;;;;;2.13;1.90;;;;;;;;;;5862932;28;20573;-71
2023/11/14 01:24:50;;;;;;;1.60;1.48;;;;;;;;;;5862275;28;20049;-71
2023/11/14 01:27:42;;;;;;;1.75;1.42;;;;;;;;;;5861030;28;20495;-71
2023/11/14 01:30:33;;;;;;;2.53;1.55;;;;;;;;;;5862236;28;20048;-71
2023/11/14 01:33:23;;;;;;;4.75;1.33;;;;;;;;;;5862441;28;20064;-71
2023/11/14 01:36:14;;;;;;;3.65;1.65;;;;;;;;;;5861969;28;20343;-72
2023/11/14 01:39:06;;;;;;;2.15;1.42;;;;;;;;;;5862119;28;20042;-72
2023/11/14 01:41:57;;;;;;;2.58;1.58;;;;;;;;;;5862616;28;20049;-72
2023/11/14 01:44:48;;;;;;;2.33;1.30;;;;;;;;;;5861887;28;20068;-72
2023/11/14 01:47:39;;;;;;;2.50;1.90;;;;;;;;;;5862040;28;20488;-72
2023/11/14 01:50:31;;;;;;;1.23;0.90;;;;;;;;;;5860743;28;20045;-72
2023/11/14 01:53:22;;;;;;;1.45;1.20;;;;;;;;;;5860788;28;20045;-72
2023/11/14 01:56:13;;;;;;;1.98;1.30;;;;;;;;;;5860713;28;20503;-71
2023/11/14 01:59:04;;;;;;;1.70;0.98;;;;;;;;;;5861803;28;20069;-72
2023/11/14 02:01:57;;;;;;;2.25;1.60;;;;;;;;;;5861151;28;20042;-72
2023/11/14 02:04:49;;;;;;;1.90;1.13;;;;;;;;;;5861951;28;20052;-72
2023/11/14 02:07:40;;;;;;;1.50;0.85;;;;;;;;;;5860332;28;20045;-72
2023/11/14 02:10:31;;;;;;;1.02;0.60;;;;;;;;;;5861482;28;20069;-72
2023/11/14 02:13:22;;;;;;;2.63;1.33;;;;;;;;;;5862693;28;20052;-72
2023/11/14 02:16:12;;;;;;;2.17;1.75;;;;;;;;;;5865829;28;20172;-72
2023/11/14 02:19:03;;;;;;;1.25;1.13;;;;;;;;;;5865961;28;20537;-72
2023/11/14 02:21:54;;;;;;;1.42;1.33;;;;;;;;;;5866269;28;20046;-72
2023/11/14 02:24:53;;;;;;;1.10;1.10;;;;;;;;;;5865497;28;20045;-72
2023/11/14 02:27:44;;;;;;;1.30;1.02;;;;;;;;;;5865727;28;20045;-72
2023/11/14 02:30:36;;;;;;;0.40;0.40;;;;;;;;;;5865670;28;20045;-72
2023/11/14 02:33:27;;;;;;;1.00;0.65;;;;;;;;;;5864544;28;20045;-72
2023/11/14 02:36:18;;;;;;;0.52;0.52;;;;;;;;;;5865420;28;20494;-72
2023/11/14 02:39:09;;;;;;;1.65;0.40;;;;;;;;;;5865578;28;20045;-72
2023/11/14 02:42:00;;;;;;;0.65;0.65;;;;;;;;;;5864681;28;20503;-72
2023/11/14 02:44:51;;;;;;;1.77;1.23;;;;;;;;;;5864286;28;20062;-72
2023/11/14 02:47:42;;;;;;;1.02;0.80;;;;;;;;;;5865221;28;20038;-72
2023/11/14 02:50:53;;;;;;;1.00;0.77;;;;;;;;;;5865287;28;20056;-72
2023/11/14 02:53:44;;;;;;;0.57;0.57;;;;;;;;;;5865289;28;20045;-72
2023/11/14 02:56:34;;;;;;;1.25;0.90;;;;;;;;;;5865330;28;20056;-72
2023/11/14 02:59:25;;;;;;;0.85;0.63;;;;;;;;;;5865322;28;20049;-72
2023/11/14 03:02:16;;;;;;;4.85;0.93;;;;;;;;;;5865143;28;20495;-72
2023/11/14 03:05:07;;;;;;;1.48;0.82;;;;;;;;;;5863670;28;20045;-71
2023/11/14 03:07:58;;;;;;;0.65;0.65;;;;;;;;;;5864226;28;20140;-71
2023/11/14 03:10:49;;;;;;;0.60;0.60;;;;;;;;;;5864660;28;20667;-72
2023/11/14 03:13:40;;;;;;;0.85;0.70;;;;;;;;;;5864729;28;20055;-72
2023/11/14 03:16:30;;;;;;;3.53;1.75;;;;;;;;;;5864588;28;20076;-72
2023/11/14 03:19:21;;;;;;;0.45;0.45;;;;;;;;;;5879795;28;20049;-72
2023/11/14 03:22:13;;;;;;;0.90;0.75;;;;;;;;;;5863006;28;20077;-72
2023/11/14 03:25:04;;;;;;;0.47;0.47;;;;;;;;;;5863372;28;20507;-71
2023/11/14 03:27:57;;;;;;;0.80;0.80;;;;;;;;;;5865030;28;20045;-72
2023/11/14 03:30:47;;;;;;;1.08;0.65;;;;;;;;;;5862961;28;20045;-72
2023/11/14 03:33:38;;;;;;;1.10;1.00;;;;;;;;;;5864502;28;20495;-72
2023/11/14 03:36:29;;;;;;;0.88;0.80;;;;;;;;;;5864125;28;20046;-72
2023/11/14 03:39:20;;;;;;;1.17;0.90;;;;;;;;;;5864265;28;20061;-71
2023/11/14 03:42:11;;;;;;;2.85;1.02;;;;;;;;;;5864188;28;20056;-72
2023/11/14 03:45:03;;;;;;;0.55;0.55;;;;;;;;;;5863874;28;20407;-72
2023/11/14 03:47:54;;;;;;;0.75;0.63;;;;;;;;;;5863077;28;20092;-72
2023/11/14 03:50:45;;;;;;;0.85;0.85;;;;;;;;;;5862605;28;20049;-72
2023/11/14 03:53:37;;;;;;;0.65;0.65;;;;;;;;;;5863782;28;20171;-72
2023/11/14 03:56:28;;;;;;;1.00;0.95;;;;;;;;;;5863720;28;20418;-72
2023/11/14 03:59:19;;;;;;;1.00;0.82;;;;;;;;;;5863558;28;20419;-72
2023/11/14 04:02:10;;;;;;;0.70;0.70;;;;;;;;;;5862224;28;20046;-72
2023/11/14 04:05:01;;;;;;;2.35;1.23;;;;;;;;;;5863697;28;20061;-72
2023/11/14 04:07:53;;;;;;;8.98;1.58;;;;;;;;;;5864222;28;20120;-72
2023/11/14 04:10:44;;;;;;;3.42;1.50;;;;;;;;;;5861913;28;20064;-72
2023/11/14 04:13:38;;;;;;;1.52;0.73;;;;;;;;;;5863366;28;20049;-72
2023/11/14 04:16:28;;;;;;;0.73;0.73;;;;;;;;;;5863365;28;20049;-72
2023/11/14 04:19:19;;;;;;;1.58;1.10;;;;;;;;;;5863540;28;20550;-71
2023/11/14 04:22:11;;;;;;;1.23;0.80;;;;;;;;;;5863310;28;20395;-72
2023/11/14 04:25:02;;;;;;;0.88;0.88;;;;;;;;;;5863188;28;20042;-71
2023/11/14 04:27:53;;;;;;;0.57;0.57;;;;;;;;;;5863751;28;20120;-72
2023/11/14 04:30:44;;;;;;;1.15;0.85;;;;;;;;;;5862952;28;20444;-71
2023/11/14 04:33:35;;;;;;;1.50;1.40;;;;;;;;;;5863067;28;20045;-72
2023/11/14 04:36:26;;;;;;;1.60;1.10;;;;;;;;;;5862708;28;20045;-72
2023/11/14 04:39:16;;;;;;;1.58;1.10;;;;;;;;;;5862828;28;20053;-72
2023/11/14 04:42:07;;;;;;;1.98;0.80;;;;;;;;;;5861172;28;20045;-72
2023/11/14 04:44:58;;;;;;;1.70;1.10;;;;;;;;;;5863556;28;20045;-71
2023/11/14 04:47:49;;;;;;;1.42;1.20;;;;;;;;;;5862888;28;20041;-71
2023/11/14 04:50:39;;;;;;;2.20;1.58;;;;;;;;;;5862887;28;20701;-72
2023/11/14 04:53:30;;;;;;;4.38;1.63;;;;;;;;;;5862719;28;20050;-72
2023/11/14 04:56:21;;;;;;;2.83;1.83;;;;;;;;;;5861248;28;20538;-71
2023/11/14 04:59:12;;;;;;;4.95;2.03;;;;;;;;;;5862739;28;20052;-72
2023/11/14 05:02:03;;;;;;;1.52;1.15;;;;;;;;;;5862567;28;20061;-72
2023/11/14 05:04:54;;;;;;;0.77;0.77;;;;;;;;;;5862829;28;20092;-72
2023/11/14 05:07:47;;;;;;;2.08;1.20;;;;;;;;;;5862464;28;20434;-72
2023/11/14 05:10:37;;;;;;;1.83;1.38;;;;;;;;;;5862318;28;20047;-72
2023/11/14 05:13:28;;;;;;;1.38;1.27;;;;;;;;;;5862380;28;20041;-71
2023/11/14 05:16:19;;;;;;;8.98;1.60;;;;;;;;;;5862531;28;20049;-72
2023/11/14 05:19:14;;;;;;;1.33;1.10;;;;;;;;;;5862263;28;20046;-72
2023/11/14 05:22:05;;;;;;;20.27;2.35;;;;;;;;;;5862249;28;20064;-72
2023/11/14 05:24:56;;;;;;;4.43;1.90;;;;;;;;;;5862809;28;20459;-71
2023/11/14 05:27:46;;;;;;;2.10;1.65;;;;;;;;;;5862218;28;20046;-72
2023/11/14 05:30:37;;;;;;;2.58;1.90;;;;;;;;;;5861926;28;20084;-71
2023/11/14 05:33:28;;;;;;;2.47;2.03;;;;;;;;;;5844175;28;20055;-72
2023/11/14 05:36:19;;;;;;;1.92;1.80;;;;;;;;;;5860392;28;20046;-72
2023/11/14 05:39:11;;;;;;;3.80;2.10;;;;;;;;;;5877652;28;20229;-72
2023/11/14 05:42:02;;;;;;;10.13;3.67;;;;;;;;;;5885504;28;20049;-72
2023/11/14 05:44:53;;;;;;;4.65;2.17;;;;;;;;;;5884017;28;20041;-71
2023/11/14 05:47:43;;;;;;;4.53;2.80;;;;;;;;;;5883071;28;20056;-72
2023/11/14 05:50:34;;;;;;;3.60;2.38;;;;;;;;;;5887481;28;20051;-72
2023/11/14 05:53:25;;;;;;;6.15;3.22;;;;;;;;;;5888342;28;20048;-72
2023/11/14 05:56:16;;;;;;;9.32;4.90;;;;;;;;;;5887528;28;20056;-72
2023/11/14 05:59:08;;;;;;;3.65;3.22;;;;;;;;;;5887129;28;20123;-72
2023/11/14 06:02:00;;;;;;;11.00;2.80;;;;;;;;;;5875322;28;20041;-72
2023/11/14 06:04:50;;;;;;;4.55;3.05;;;;;;;;;;5866272;28;20056;-72
2023/11/14 06:07:42;;;;;;;8.43;2.30;;;;;;;;;;5866475;28;20049;-72
2023/11/14 06:10:33;;;;;;;3.42;2.60;;;;;;;;;;5865565;28;20052;-72
2023/11/14 06:13:24;;;;;;;3.53;2.55;;;;;;;;;;5865057;28;20037;-71
2023/11/14 06:16:15;;;;;;;3.88;2.83;;;;;;;;;;5865250;28;20072;-72
2023/11/14 06:19:05;;;;;;;15.23;7.20;;;;;;;;;;5865696;28;20068;-72
2023/11/14 06:21:57;;;;;;;6.25;5.57;;;;;;;;;;5866482;28;20045;-72
2023/11/14 06:24:47;;;;;;;6.72;3.50;;;;;;;;;;5865991;28;20049;-72
2023/11/14 06:27:38;;;;;;;4.53;3.28;;;;;;;;;;5865681;28;20068;-71
2023/11/14 06:30:29;;;;;;;3.90;2.60;;;;;;;;;;5865957;28;20041;-71
2023/11/14 06:33:20;;;;;;;4.80;3.15;;;;;;;;;;5865697;28;20051;-71
2023/11/14 06:36:13;;;;;;;2.45;1.83;;;;;;;;;;5865646;28;20132;-71
2023/11/14 06:39:05;;;;;;;5.13;4.15;;;;;;;;;;5865848;28;20060;-71
2023/11/14 06:41:56;;;;;;;2.85;2.35;;;;;;;;;;5864539;28;20045;-71
2023/11/14 06:44:46;;;;;;;3.13;2.13;;;;;;;;;;5865227;28;20087;-71
2023/11/14 06:47:37;;;;;;;3.35;2.90;;;;;;;;;;5865253;28;20525;-72
2023/11/14 06:50:28;;;;;;;2.15;1.77;;;;;;;;;;5865566;28;20069;-71
2023/11/14 06:53:33;;;;;;;5.82;2.78;;;;;;;;;;5865517;28;20045;-72
2023/11/14 06:56:24;;;;;;;7.13;2.60;;;;;;;;;;5865179;28;20052;-71
2023/11/14 06:59:14;;;;;;;2.88;2.00;;;;;;;;;;5865057;28;20052;-72
2023/11/14 07:02:08;;;;;;;5.53;2.20;;;;;;;;;;5864899;28;20053;-72
2023/11/14 07:04:59;;;;;;;4.32;1.73;;;;;;;;;;5865432;28;20049;-72
2023/11/14 07:07:50;;;;;;;1.42;1.13;;;;;;;;;;5864050;28;20045;-71
2023/11/14 07:10:40;;;;;;;2.33;1.88;;;;;;;;;;5864675;28;20049;-70
2023/11/14 07:13:32;;;;;;;11.00;2.10;;;;;;;;;;5865051;28;20521;-71
2023/11/14 07:16:22;;;;;;;2.22;1.60;;;;;;;;;;5864670;28;20072;-72
2023/11/14 07:19:13;;;;;;;3.88;1.83;;;;;;;;;;5864556;28;20119;-72
2023/11/14 07:22:04;;;;;;;2.38;2.05;;;;;;;;;;5864806;28;20049;-71
2023/11/14 07:24:55;;;;;;;1.70;1.58;;;;;;;;;;5865129;28;20045;-71
2023/11/14 07:27:47;;;;;;;2.70;2.38;;;;;;;;;;5864255;28;20049;-72
2023/11/14 07:30:38;;;;;;;2.22;1.73;;;;;;;;;;5864468;28;20046;-72
2023/11/14 07:33:28;;;;;;;4.00;1.63;;;;;;;;;;5864605;28;20045;-72
2023/11/14 07:36:19;;;;;;;2.60;1.70;;;;;;;;;;5864238;28;20057;-72
2023/11/14 07:39:11;;;;;;;2.75;1.33;;;;;;;;;;5864122;28;20050;-72
2023/11/14 07:42:02;;;;;;;2.92;1.95;;;;;;;;;;5864255;28;20503;-72
2023/11/14 07:44:53;;;;;;;8.80;2.25;;;;;;;;;;5864388;28;20052;-71
2023/11/14 07:47:44;;;;;;;6.30;2.10;;;;;;;;;;5864186;28;20045;-72
2023/11/14 07:50:34;;;;;;;11.35;1.73;;;;;;;;;;5863791;28;20132;-72
2023/11/14 07:53:26;;;;;;;2.53;1.38;;;;;;;;;;5864017;28;20491;-72
2023/11/14 07:56:17;;;;;;;1.58;1.45;;;;;;;;;;5863702;28;20422;-72
2023/11/14 07:59:12;;;;;;;1.58;1.05;;;;;;;;;;5863612;28;20115;-72
2023/11/14 08:02:04;;;;;;;1.95;1.75;;;;;;;;;;5863699;28;20064;-71
2023/11/14 08:04:54;;;;;;;2.55;1.45;;;;;;;;;;5864284;28;20388;-72
2023/11/14 08:07:45;;;;;;;1.70;1.48;;;;;;;;;;5863733;28;20427;-71
2023/11/14 08:10:37;;;;;;;2.72;1.75;;;;;;;;;;5862926;28;20049;-72
2023/11/14 08:13:29;;;;;;;3.08;1.67;;;;;;;;;;5863664;28;20052;-71
2023/11/14 08:16:19;;;;;;;4.47;2.13;;;;;;;;;;5863431;28;20180;-72
2023/11/14 08:19:10;;;;;;;2.75;1.75;;;;;;;;;;5863261;28;20088;-72
2023/11/14 08:22:05;;;;;;;3.83;1.75;;;;;;;;;;5863556;28;20045;-72
2023/11/14 08:24:56;;;;;;;2.95;1.55;;;;;;;;;;5863857;28;20041;-71
2023/11/14 08:27:48;;;;;;;5.68;1.73;;;;;;;;;;5863174;28;20049;-72
2023/11/14 08:30:40;;;;;;;6.00;1.80;;;;;;;;;;5863343;28;20041;-71
2023/11/14 08:33:31;;;;;;;5.40;1.48;;;;;;;;;;5863047;28;20056;-71
2023/11/14 08:36:22;;;;;;;5.85;2.08;;;;;;;;;;5863286;28;20048;-72
2023/11/14 08:39:13;;;;;;;8.85;1.75;;;;;;;;;;5861816;28;20054;-72
2023/11/14 08:42:11;;;;;;;1.10;0.90;;;;;;;;;;5862967;28;20045;-72
2023/11/14 08:45:02;;;;;;;3.08;1.02;;;;;;;;;;5863058;28;20045;-72
2023/11/14 08:47:53;;;;;;;5.53;1.58;;;;;;;;;;5863599;28;20392;-72
2023/11/14 08:50:44;;;;;;;2.25;1.25;;;;;;;;;;5861459;28;20045;-72
2023/11/14 08:53:35;;;;;;;1.55;1.10;;;;;;;;;;5862916;28;20057;-72
2023/11/14 08:56:27;;;;;;;1.45;1.17;;;;;;;;;;5862862;28;20048;-71
2023/11/14 08:59:18;;;;;;;4.07;2.03;;;;;;;;;;5862728;28;20123;-72
2023/11/14 09:02:10;;;;;;;2.13;1.02;;;;;;;;;;5862776;28;20400;-72
2023/11/14 09:05:01;;;;;;;3.05;1.52;;;;;;;;;;5862963;28;20495;-72
2023/11/14 09:07:52;;;;;;;2.78;1.23;;;;;;;;;;5863272;28;20053;-72
2023/11/14 09:10:44;;;;;;;1.38;1.15;;;;;;;;;;5861954;28;20050;-72
2023/11/14 09:13:35;;;;;;;1.70;0.80;;;;;;;;;;5862743;28;20522;-72
2023/11/14 09:16:26;;;;;;;5.03;0.95;;;;;;;;;;5862788;28;20049;-72
2023/11/14 09:19:17;;;;;;;1.05;0.90;;;;;;;;;;5862505;28;20057;-72
2023/11/14 09:22:08;;;;;;;1.05;0.95;;;;;;;;;;5862602;28;20096;-72
2023/11/14 09:24:59;;;;;;;4.63;1.30;;;;;;;;;;5866985;28;20048;-72
2023/11/14 09:27:50;;;;;;;3.47;1.90;;;;;;;;;;5867567;28;20048;-71
2023/11/14 09:30:41;;;;;;;1.70;0.85;;;;;;;;;;5867140;28;20510;-71
2023/11/14 09:33:33;;;;;;;0.95;0.80;;;;;;;;;;5867108;28;20508;-72
2023/11/14 09:36:24;;;;;;;1.35;0.80;;;;;;;;;;5867099;28;20049;-72
2023/11/14 09:39:15;;;;;;;2.28;1.23;;;;;;;;;;5866959;28;20049;-72
2023/11/14 09:42:18;;;;;;;4.93;1.63;;;;;;;;;;5866975;28;20041;-72
2023/11/14 09:45:10;;;;;;;3.60;1.30;;;;;;;;;;5866885;28;20049;-72
2023/11/14 09:48:08;;;;;;;1.30;0.95;;;;;;;;;;5866966;28;20042;-72
2023/11/14 09:51:00;;;;;;;1.25;1.15;;;;;;;;;;5867093;28;20120;-72
2023/11/14 09:53:52;;;;;;;2.65;1.60;;;;;;;;;;5866748;28;20049;-72
2023/11/14 09:56:50;;;;;;;3.65;1.83;;;;;;;;;;5866674;28;20164;-71
2023/11/14 09:59:43;;;;;;;5.43;1.15;;;;;;;;;;5865180;28;20392;-72
2023/11/14 10:02:33;;;;;;;2.45;1.45;;;;;;;;;;5866598;28;20533;-72
2023/11/14 10:05:25;;;;;;;1.38;0.95;;;;;;;;;;5866446;28;20128;-72
2023/11/14 10:08:16;;;;;;;2.00;1.30;;;;;;;;;;5866843;28;20045;-72
2023/11/14 10:11:09;;;;;;;1.13;0.50;;;;;;;;;;5866207;28;20099;-72
2023/11/14 10:14:04;;;;;;;1.50;0.98;;;;;;;;;;5867013;28;20491;-73
2023/11/14 10:16:58;;;;;;;2.78;1.48;;;;;;;;;;5866528;28;20041;-73
2023/11/14 10:20:02;;;;;;;13.23;1.42;;;;;;;;;;5866439;28;20418;-72
2023/11/14 10:22:58;;;;;;;2.47;1.27;;;;;;;;;;5866589;28;20124;-72
2023/11/14 10:26:04;;;;;;;1.48;0.52;;;;;;;;;;5866323;28;20045;-73
2023/11/14 10:29:01;;;;;;;2.50;1.58;;;;;;;;;;5866304;28;20041;-72
2023/11/14 10:31:52;;;;;;;1.67;1.35;;;;;;;;;;5866497;28;20111;-73
2023/11/14 10:34:44;;;;;;;2.92;0.93;;;;;;;;;;5865260;28;20395;-72
2023/11/14 10:37:35;;;;;;;2.25;0.90;;;;;;;;;;5865910;28;20122;-72
2023/11/14 10:40:44;;;;;;;1.13;0.77;;;;;;;;;;5865799;28;20045;-74
2023/11/14 10:43:35;;;;;;;3.30;1.10;;;;;;;;;;5865477;28;20049;-74
2023/11/14 10:46:27;;;;;;;2.08;1.05;;;;;;;;;;5865718;28;20050;-73
2023/11/14 10:49:20;;;;;;;2.42;1.00;;;;;;;;;;5865380;28;20049;-74
2023/11/14 10:52:11;;;;;;;2.20;1.58;;;;;;;;;;5865606;28;20053;-73
2023/11/14 10:55:05;;;;;;;8.23;3.55;;;;;;;;;;5864306;28;20050;-72
2023/11/14 10:57:56;;;;;;;5.22;1.50;;;;;;;;;;5866043;28;20145;-72
2023/11/14 11:00:48;;;;;;;6.72;2.13;;;;;;;;;;5865287;28;20050;-72
2023/11/14 11:03:39;;;;;;;1.38;1.05;;;;;;;;;;5863872;28;20056;-73
2023/11/14 11:06:31;;;;;;;2.85;1.08;;;;;;;;;;5863885;28;20148;-73
2023/11/14 11:09:23;;;;;;;1.35;1.05;;;;;;;;;;5865211;28;20045;-73
2023/11/14 11:12:15;;;;;;;1.48;1.05;;;;;;;;;;5864873;28;20072;-72
2023/11/14 11:15:10;;;;;;;3.22;2.03;;;;;;;;;;5865258;28;20045;-73
2023/11/14 11:18:03;;;;;;;0.80;0.80;;;;;;;;;;5864989;28;20454;-73
2023/11/14 11:21:10;;;;;;;18.13;1.33;;;;;;;;;;5863995;28;20136;-73
2023/11/14 11:24:12;;;;;;;31.92;2.28;;;;;;;;;;5864653;28;20049;-73
2023/11/14 11:27:21;;;;;;;1.75;1.48;;;;;;;;;;5863560;28;20132;-73
2023/11/14 11:30:13;;;;;;;3.95;1.88;;;;;;;;;;5864786;28;20100;-74
2023/11/14 11:33:35;;;;;;;1.90;1.02;;;;;;;;;;5864681;28;20049;-74
2023/11/14 11:36:32;;;;;;;3.33;1.95;;;;;;;;;;5864527;28;20135;-72
2023/11/14 11:39:26;;;;;;;3.88;0.88;;;;;;;;;;5864513;28;20092;-72
2023/11/14 11:42:17;;;;;;;1.80;1.30;;;;;;;;;;5864525;28;20064;-73
2023/11/14 11:45:28;;;;;;;2.08;0.98;;;;;;;;;;5863530;28;20107;-73
2023/11/14 11:48:34;;;;;;;13.85;1.17;;;;;;;;;;5862968;28;20145;-72
2023/11/14 11:51:26;;;;;;;3.55;1.48;;;;;;;;;;5864202;28;20042;-72
2023/11/14 11:54:26;;;;;;;1.95;1.13;;;;;;;;;;5863822;28;20137;-73
2023/11/14 11:57:21;;;;;;;1.45;1.20;;;;;;;;;;5864033;28;20053;-73
2023/11/14 12:00:15;;;;;;;8.25;2.25;;;;;;;;;;5864069;28;20063;-73
2023/11/14 12:03:05;;;;;;;1.63;0.98;;;;;;;;;;5864168;28;20053;-73
2023/11/14 12:06:02;;;;;;;9.55;2.78;;;;;;;;;;5864172;28;20049;-73
2023/11/14 12:08:54;;;;;;;6.32;2.25;;;;;;;;;;5862529;28;20041;-73
2023/11/14 12:11:44;;;;;;;5.45;3.22;;;;;;;;;;5862125;28;20049;-73
2023/11/14 12:14:35;;;;;;;7.00;2.15;;;;;;;;;;5863511;28;20057;-73
2023/11/14 12:17:26;;;;;;;10.25;4.30;;;;;;;;;;5863629;28;20108;-73
2023/11/14 12:20:19;;;;;;;10.50;6.97;;;;;;;;;;5863324;28;20088;-73
2023/11/14 12:23:11;;;;;;;9.77;3.97;;;;;;;;;;5863087;28;20107;-73
2023/11/14 12:26:02;;;;;;;13.27;4.30;;;;;;;;;;5867105;28;20118;-73
2023/11/14 12:28:55;;;;;;;9.20;5.03;;;;;;;;;;5870835;28;20049;-73
2023/11/14 12:31:50;;;;;;;4.32;2.65;;;;;;;;;;5862127;28;20814;-73
2023/11/14 12:34:41;;;;;;;9.27;4.63;;;;;;;;;;5868458;28;20049;-73
2023/11/14 12:37:32;;;;;;;12.25;7.50;;;;;;;;;;5886117;28;20123;-73
2023/11/14 12:40:23;;;;;;;5.63;2.22;;;;;;;;;;5884738;28;20044;-73
2023/11/14 12:43:15;;;;;;;4.20;2.42;;;;;;;;;;5886727;28;20521;-72
2023/11/14 12:46:05;;;;;;;10.93;2.28;;;;;;;;;;5886207;28;20052;-73
2023/11/14 12:49:16;;;;;;;6.13;3.15;;;;;;;;;;5886539;28;20235;-72
2023/11/14 12:52:10;;;;;;;5.07;2.47;;;;;;;;;;5863774;28;20103;-73
2023/11/14 12:55:01;;;;;;;34.25;2.60;;;;;;;;;;5868529;28;20440;-73
2023/11/14 12:57:52;;;;;;;2.80;1.80;;;;;;;;;;5886647;28;20051;-73
2023/11/14 13:00:43;;;;;;;7.07;1.55;;;;;;;;;;5885925;28;20408;-73
2023/11/14 13:03:34;;;;;;;2.40;1.23;;;;;;;;;;5886532;28;20395;-73
2023/11/14 13:06:27;;;;;;;5.53;2.45;;;;;;;;;;5885742;28;20107;-73
2023/11/14 13:09:19;;;;;;;4.82;1.90;;;;;;;;;;5884712;28;20048;-73
2023/11/14 13:12:11;;;;;;;4.88;2.17;;;;;;;;;;5862083;28;20415;-72
2023/11/14 13:15:03;;;;;;;3.35;1.67;;;;;;;;;;5873414;28;20098;-72
2023/11/14 13:17:54;;;;;;;3.88;1.35;;;;;;;;;;5886169;28;20355;-72
2023/11/14 13:20:46;;;;;;;1.52;1.25;;;;;;;;;;5884939;28;20075;-73
2023/11/14 13:23:38;;;;;;;2.85;2.28;;;;;;;;;;5875515;28;20447;-72
2023/11/14 13:26:29;;;;;;;8.65;5.10;;;;;;;;;;5883035;28;20415;-72
2023/11/14 13:29:20;;;;;;;22.27;11.63;;;;;;;;;;5885349;28;20084;-73
2023/11/14 13:32:13;;;;;;;12.75;6.60;;;;;;;;;;5885825;28;20520;-73
2023/11/14 13:35:06;;;;;;;14.10;6.50;;;;;;;;;;5885605;28;20041;-72
2023/11/14 13:37:57;;;;;;;10.52;6.18;;;;;;;;;;5884906;28;20156;-73
2023/11/14 13:40:48;;;;;;;8.48;4.88;;;;;;;;;;5885002;28;20045;-72
2023/11/14 13:43:39;;;;;;;7.07;4.35;;;;;;;;;;5885825;28;20063;-73
2023/11/14 13:46:30;;;;;;;2.63;1.90;;;;;;;;;;5885170;28;20065;-72
2023/11/14 13:49:21;;;;;;;2.47;1.85;;;;;;;;;;5885759;28;20072;-72
2023/11/14 13:52:12;;;;;;;10.32;5.38;;;;;;;;;;5885499;28;20506;-73
2023/11/14 13:55:04;;;;;;;4.53;2.17;;;;;;;;;;5884951;28;20495;-72
2023/11/14 13:57:54;;;;;;;10.07;4.78;;;;;;;;;;5885779;28;20045;-72
2023/11/14 14:00:45;;;;;;;7.57;4.68;;;;;;;;;;5873978;28;20053;-72
2023/11/14 14:03:37;;;;;;;6.93;3.40;;;;;;;;;;5861382;28;20562;-72
2023/11/14 14:06:28;;;;;;;11.77;6.28;;;;;;;;;;5878871;28;20064;-73
2023/11/14 14:09:19;;;;;;;8.77;6.20;;;;;;;;;;5886081;28;20117;-73
2023/11/14 14:12:10;;;;;;;24.45;9.27;;;;;;;;;;5889668;28;20064;-72
2023/11/14 14:15:04;;;;;;;12.18;7.22;;;;;;;;;;5889580;28;20046;-72
2023/11/14 14:17:55;;;;;;;36.13;18.63;;;;;;;;;;5890314;28;20509;-73
2023/11/14 14:20:50;;;;;;;33.40;15.32;;;;;;;;;;5889108;28;20560;-72
2023/11/14 14:23:41;;;;;;;13.50;5.38;;;;;;;;;;5889751;28;20122;-72
2023/11/14 14:26:33;;;;;;;35.28;9.65;;;;;;;;;;5888031;28;20514;-72
2023/11/14 14:29:24;;;;;;;24.38;13.48;;;;;;;;;;5889244;28;20175;-72
2023/11/14 14:32:16;;;;;;;30.05;16.38;;;;;;;;;;5889520;28;20132;-72
2023/11/14 14:35:12;;;;;;;34.92;14.63;;;;;;;;;;5889218;28;20045;-72
2023/11/14 14:38:03;;;;;;;28.60;12.50;;;;;;;;;;5887886;28;20059;-72
2023/11/14 14:40:54;;;;;;;23.30;8.20;;;;;;;;;;5888865;28;20041;-73
2023/11/14 14:43:44;;;;;;;15.43;7.75;;;;;;;;;;5883567;28;20487;-73
2023/11/14 14:46:36;;;;;;;16.10;7.65;;;;;;;;;;5870102;28;20061;-72
2023/11/14 15:18:56;;;;;;;;;;;;;;;;;;5915420;27;20378;-73
2023/11/14 15:21:48;;;;;;;7.18;6.07;;;;;;;;;;5906526;28;19927;-73
2023/11/14 15:24:39;;;;;;;16.52;8.60;;;;;;;;;;5882490;28;20056;-73
2023/11/14 15:27:29;;;;;;;15.93;8.98;;;;;;;;;;5882729;28;20059;-73
2023/11/14 15:30:20;;;;;;;24.05;12.82;;;;;;;;;;5883032;28;20041;-73
2023/11/14 15:33:11;;;;;;;43.10;24.20;;;;;;;;;;5883017;28;20419;-73
2023/11/14 15:36:03;;;;;;;53.53;16.10;;;;;;;;;;5881598;28;20770;-73
2023/11/14 15:38:53;;;;;;;21.58;12.25;;;;;;;;;;5883088;28;20060;-73
2023/11/14 15:41:44;;;;;;;17.20;8.45;;;;;;;;;;5882100;28;20053;-73
2023/11/14 15:44:35;;;;;;;13.93;6.95;;;;;;;;;;5882496;28;20123;-73
2023/11/14 15:47:26;;;;;;;8.43;5.47;;;;;;;;;;5882613;28;20511;-73
2023/11/14 15:50:19;;;;;;;13.98;5.63;;;;;;;;;;5882727;28;20148;-73
2023/11/14 15:53:11;;;;;;;16.42;8.32;;;;;;;;;;5882582;28;20526;-73
2023/11/14 15:56:02;;;;;;;33.35;17.50;;;;;;;;;;5895859;28;20052;-73
2023/11/14 15:58:54;;;;;;;32.72;10.77;;;;;;;;;;5905812;28;20479;-73
2023/11/14 16:01:45;;;;;;;16.40;7.25;;;;;;;;;;5904168;28;20056;-73
2023/11/14 16:04:39;;;;;;;10.35;6.15;;;;;;;;;;5905442;28;20049;-73
2023/11/14 16:07:30;;;;;;;9.00;6.00;;;;;;;;;;5905115;28;20051;-73
2023/11/14 16:10:23;;;;;;;13.18;7.28;;;;;;;;;;5898244;28;20044;-73
2023/11/14 16:13:14;;;;;;;17.90;6.53;;;;;;;;;;5891209;28;20048;-73
2023/11/14 16:16:07;;;;;;;8.93;5.78;;;;;;;;;;5890342;28;20422;-73
2023/11/14 16:18:58;;;;;;;6.60;3.90;;;;;;;;;;5906836;28;20040;-73
2023/11/14 16:21:49;;;;;;;8.35;5.43;;;;;;;;;;5898694;28;20045;-73
2023/11/14 16:24:40;;;;;;;10.43;5.60;;;;;;;;;;5892361;28;20060;-74
2023/11/14 16:27:31;;;;;;;5.65;3.72;;;;;;;;;;5892097;28;20055;-73
2023/11/14 16:30:22;;;;;;;8.32;4.15;;;;;;;;;;5871536;28;20141;-73
2023/11/14 16:33:13;;;;;;;7.45;5.32;;;;;;;;;;5868524;28;20411;-73
2023/11/14 16:36:04;;;;;;;12.82;6.38;;;;;;;;;;5866314;28;20132;-73
2023/11/14 16:38:55;;;;;;;15.20;5.30;;;;;;;;;;5866465;28;20058;-73
2023/11/14 16:41:46;;;;;;;13.45;8.38;;;;;;;;;;5880881;28;20419;-73
2023/11/14 16:44:37;;;;;;;30.95;14.00;;;;;;;;;;5869771;28;20045;-73
2023/11/14 16:47:28;;;;;;;27.42;16.17;;;;;;;;;;5874977;28;20061;-74
2023/11/14 16:50:19;;;;;;;34.22;15.90;;;;;;;;;;5873488;28;20123;-73
2023/11/14 16:53:09;;;;;;;46.97;16.67;;;;;;;;;;5876580;28;20041;-73
2023/11/14 16:56:00;;;;;;;35.08;5.55;;;;;;;;;;5874515;28;20045;-73
2023/11/14 16:58:51;;;;;;;15.50;7.55;;;;;;;;;;5880561;28;20534;-73
2023/11/14 17:01:43;;;;;;;6.68;4.32;;;;;;;;;;5888639;28;20053;-73
2023/11/14 17:04:34;;;;;;;9.70;5.93;;;;;;;;;;5888580;28;20057;-73
2023/11/14 17:07:30;;;;;;;12.02;6.35;;;;;;;;;;5886798;28;20102;-72
2023/11/14 17:10:21;;;;;;;16.67;7.30;;;;;;;;;;5878164;28;20057;-73
2023/11/14 17:13:12;;;;;;;30.23;17.60;;;;;;;;;;5865533;28;20415;-73
2023/11/14 17:16:06;;;;;;;103.68;38.25;;;;;;;;;;5865298;28;20919;-73
2023/11/14 17:18:57;;;;;;;48.08;22.98;;;;;;;;;;5865284;28;20053;-72
2023/11/14 17:21:48;;;;;;;12.35;7.18;;;;;;;;;;5864909;28;20049;-73
2023/11/14 17:24:39;;;;;;;16.05;8.27;;;;;;;;;;5864514;28;20045;-73
2023/11/14 17:27:30;;;;;;;16.15;9.20;;;;;;;;;;5865392;28;20053;-72
2023/11/14 17:30:23;;;;;;;5.53;4.35;;;;;;;;;;5864892;28;20068;-73
2023/11/14 17:33:13;;;;;;;22.02;12.00;;;;;;;;;;5864874;28;20404;-73
2023/11/14 17:36:05;;;;;;;7.25;4.07;;;;;;;;;;5864855;28;20083;-73
2023/11/14 17:38:56;;;;;;;20.63;7.63;;;;;;;;;;5864953;28;20533;-72